Time;durP1;ratioP1;P1;durP2;ratioP2;P2;SDS_P1;SDS_P2;PMS_P1;PMS_P2;Temp;Humidity;BMP_temperature;BMP_pressure;BME280_temperature;BME280_humidity;BME280_pressure;Samples;Min_cycle;Max_cycle;Signal;HPM_P1;HPM_P2
2023/03/18 00:02:18;;;;;;;17.80;8.60;;;;;;;3.66;47.10;100623.80;103672;1253;98315;-68
2023/03/18 00:05:08;;;;;;;17.20;8.50;;;;;;;3.64;47.24;100607.64;103545;1247;137626;-68
2023/03/18 00:07:56;;;;;;;16.10;8.80;;;;;;;3.62;47.16;100615.21;103646;1254;97925;-67
2023/03/18 00:10:34;;;;;;;18.30;8.70;;;;;;;3.60;47.12;100621.40;103695;1248;110967;-67
2023/03/18 00:13:06;;;;;;;19.30;8.70;;;;;;;3.59;47.17;100617.42;102791;1253;1002878;-67
2023/03/18 00:15:33;;;;;;;16.50;8.30;;;;;;;3.57;47.27;100613.80;103609;1253;97945;-68
2023/03/18 00:18:09;;;;;;;15.10;7.80;;;;;;;3.55;47.19;100620.33;103545;1253;137501;-67
2023/03/18 00:20:58;;;;;;;17.20;7.90;;;;;;;3.54;47.21;100610.36;103622;1254;97848;-68
2023/03/18 00:23:37;;;;;;;14.70;7.50;;;;;;;3.52;47.27;100611.22;103585;1253;138559;-67
2023/03/18 00:26:25;;;;;;;15.90;7.80;;;;;;;3.50;47.27;100622.21;102912;1248;1003153;-67
2023/03/18 00:28:57;;;;;;;14.80;7.10;;;;;;;3.48;47.19;100609.16;103423;1253;138351;-68
2023/03/18 00:31:39;;;;;;;15.60;7.50;;;;;;;3.46;47.28;100602.45;103681;1252;107696;-68
2023/03/18 00:34:07;;;;;;;12.80;7.20;;;;;;;3.44;47.41;100597.80;103721;1248;97803;-68
2023/03/18 00:36:49;;;;;;;14.90;7.10;;;;;;;3.42;47.33;100598.83;103591;1248;137328;-68
2023/03/18 00:39:20;;;;;;;15.30;7.80;;;;;;;3.41;47.51;100584.38;103547;1253;107922;-68
2023/03/18 00:41:51;;;;;;;16.20;7.10;;;;;;;3.39;47.44;100594.15;103707;1253;137598;-68
2023/03/18 00:44:19;;;;;;;15.70;7.10;;;;;;;3.36;47.42;100586.42;103739;1253;107783;-68
2023/03/18 00:46:46;;;;;;;15.10;6.80;;;;;;;3.35;47.44;100583.49;102872;1254;1002829;-68
2023/03/18 00:49:36;;;;;;;14.50;7.30;;;;;;;3.33;47.49;100598.63;103609;1254;111190;-68
2023/03/18 00:52:18;;;;;;;14.00;7.00;;;;;;;3.31;47.25;100575.08;103623;1256;106565;-68
2023/03/18 00:54:46;;;;;;;14.70;6.80;;;;;;;3.30;47.36;100583.15;104045;1253;137774;-68
2023/03/18 00:57:25;;;;;;;11.90;6.80;;;;;;;3.27;47.37;100583.32;103985;1251;107760;-68
2023/03/18 00:59:52;;;;;;;14.20;6.60;;;;;;;3.26;47.36;100580.39;103374;1251;137655;-68
2023/03/18 01:02:22;;;;;;;13.90;6.80;;;;;;;3.25;47.56;100571.29;103496;1253;111214;-68
2023/03/18 01:04:53;;;;;;;11.50;6.70;;;;;;;3.24;47.32;100569.91;103292;1263;137820;-68
2023/03/18 01:07:26;;;;;;;14.50;6.90;;;;;;;3.23;47.25;100568.01;103744;1253;98139;-68
2023/03/18 01:09:56;;;;;;;11.50;6.40;;;;;;;3.22;47.52;100563.35;101123;1248;3368375;-68
2023/03/18 01:12:32;;;;;;;13.00;6.80;;;;;;;3.21;47.41;100556.30;103442;1248;137833;-68
2023/03/18 01:14:59;;;;;;;15.00;7.10;;;;;;;3.20;47.54;100560.77;103641;1254;111317;-68
2023/03/18 01:17:28;;;;;;;12.90;6.80;;;;;;;3.20;47.27;100557.67;103351;1254;137721;-68
2023/03/18 01:19:57;;;;;;;13.10;6.60;;;;;;;3.19;47.32;100568.67;104050;1254;96765;-68
2023/03/18 01:22:27;;;;;;;12.50;6.60;;;;;;;3.18;47.37;100548.56;103645;1248;107689;-68
2023/03/18 01:24:56;;;;;;;13.20;6.60;;;;;;;3.17;47.05;100560.59;102887;1251;1003643;-68
2023/03/18 01:27:44;;;;;;;12.40;6.30;;;;;;;3.16;47.20;100557.16;104066;1252;112057;-68
2023/03/18 01:30:22;;;;;;;12.30;5.90;;;;;;;3.16;47.20;100548.56;103372;1249;138824;-68
2023/03/18 01:32:50;;;;;;;15.50;6.50;;;;;;;3.16;47.29;100546.84;103653;1251;97899;-67
2023/03/18 01:35:39;;;;;;;13.10;6.20;;;;;;;3.15;47.25;100553.89;103528;1253;137494;-68
2023/03/18 01:38:08;;;;;;;11.40;5.70;;;;;;;3.14;47.22;100544.27;103755;1253;97777;-67
2023/03/18 01:40:39;;;;;;;15.40;6.20;;;;;;;3.14;46.95;100555.27;103516;1251;110451;-66
2023/03/18 01:43:19;;;;;;;11.00;5.70;;;;;;;3.13;47.10;100540.14;103579;1254;107640;-67
2023/03/18 01:46:34;;;;;;;11.50;6.20;;;;;;;3.12;47.04;100531.37;103656;1253;98280;-67
2023/03/18 01:49:20;;;;;;;11.00;6.10;;;;;;;3.11;47.16;100530.86;103563;1248;137236;-68
2023/03/18 01:51:52;;;;;;;;;;;;;;;3.11;47.01;100531.89;103806;1254;97790;-67
2023/03/18 01:54:25;;;;;;;10.30;5.80;;;;;;;3.09;47.00;100534.64;104210;1248;123826;-68
2023/03/18 01:56:54;;;;;;;11.10;5.40;;;;;;;3.09;46.97;100543.91;104072;1252;107423;-68
2023/03/18 01:59:44;;;;;;;10.70;5.50;;;;;;;3.09;46.80;100532.58;103509;1253;137617;-68
2023/03/18 02:02:24;;;;;;;12.80;5.50;;;;;;;3.08;46.93;100535.14;103736;1248;107468;-68
2023/03/18 02:04:58;;;;;;;14.80;5.90;;;;;;;3.09;46.95;100535.85;104393;1248;97509;-67
2023/03/18 02:07:28;;;;;;;10.90;5.60;;;;;;;3.08;46.91;100537.05;103678;1248;111795;-67
2023/03/18 02:10:10;;;;;;;10.70;5.80;;;;;;;3.08;46.91;100549.94;103545;1251;107615;-68
2023/03/18 02:12:55;;;;;;;11.10;5.00;;;;;;;3.06;46.97;100544.77;103578;1251;137547;-68
2023/03/18 02:15:49;;;;;;;13.70;5.90;;;;;;;3.03;47.11;100544.22;103627;1252;107007;-67
2023/03/18 02:18:30;;;;;;;10.70;5.60;;;;;;;3.01;47.20;100533.91;104785;1251;138355;-68
2023/03/18 02:21:15;;;;;;;13.90;5.40;;;;;;;2.99;47.23;100545.08;104191;1253;111079;-68
2023/03/18 02:23:54;;;;;;;13.80;5.80;;;;;;;2.98;47.17;100538.04;103532;1254;137655;-67
2023/03/18 02:26:26;;;;;;;14.80;5.90;;;;;;;2.97;47.30;100532.20;103035;1248;1003337;-67
2023/03/18 02:29:01;;;;;;;11.80;5.60;;;;;;;2.95;47.43;100527.90;103462;1253;109042;-68
2023/03/18 02:31:29;;;;;;;12.70;5.70;;;;;;;2.95;47.22;100533.55;103807;1254;98882;-67
2023/03/18 02:34:00;;;;;;;13.90;5.70;;;;;;;2.93;47.52;100536.30;104279;1248;111830;-68
2023/03/18 02:36:30;;;;;;;16.10;5.50;;;;;;;2.91;47.38;100539.23;103602;1247;138136;-68
2023/03/18 02:39:07;;;;;;;16.60;5.50;;;;;;;2.90;47.45;100535.96;103921;1248;97777;-68
2023/03/18 02:41:38;;;;;;;17.10;5.50;;;;;;;2.90;47.38;100531.15;103515;1250;137837;-68
2023/03/18 02:44:10;;;;;;;12.30;5.50;;;;;;;2.88;47.45;100529.25;103482;1253;97769;-68
2023/03/18 02:47:04;;;;;;;10.40;5.40;;;;;;;2.86;47.51;100535.58;103641;1253;111259;-67
2023/03/18 02:49:41;;;;;;;12.20;5.10;;;;;;;2.85;47.66;100535.05;103754;1253;107638;-66
2023/03/18 02:52:14;;;;;;;14.80;6.00;;;;;;;2.83;47.63;100526.98;103633;1252;98277;-67
2023/03/18 02:54:58;;;;;;;10.10;4.90;;;;;;;2.82;47.90;100518.73;103947;1251;137627;-68
2023/03/18 02:57:28;;;;;;;9.10;5.20;;;;;;;2.80;47.98;100527.32;104012;1254;96105;-67
2023/03/18 02:59:59;;;;;;;13.40;5.40;;;;;;;2.78;47.93;100532.98;103499;1248;137424;-67
2023/03/18 03:02:29;;;;;;;14.10;5.40;;;;;;;2.78;47.89;100523.88;104732;1253;107264;-68
2023/03/18 03:04:56;;;;;;;11.90;5.10;;;;;;;2.77;47.96;100514.95;103906;1253;97884;-67
2023/03/18 03:07:45;;;;;;;10.50;5.20;;;;;;;2.76;47.86;100506.88;104187;1248;108875;-67
2023/03/18 03:10:18;;;;;;;8.90;4.90;;;;;;;2.75;47.77;100512.54;104115;1248;97589;-67
2023/03/18 03:12:46;;;;;;;15.90;5.70;;;;;;;2.73;47.96;100516.14;103547;1248;137213;-67
2023/03/18 03:15:21;;;;;;;;;;;;;;;2.73;47.74;100502.58;103688;1251;108645;-67
2023/03/18 03:17:53;;;;;;;10.50;4.60;;;;;;;2.71;47.86;100503.77;103487;1248;123912;-67
2023/03/18 03:20:23;;;;;;;10.10;4.70;;;;;;;2.70;47.96;100502.39;103509;1251;107971;-67
2023/03/18 03:22:54;;;;;;;10.80;4.40;;;;;;;2.69;47.91;100499.63;103585;1251;97939;-67
2023/03/18 03:25:25;;;;;;;9.70;4.50;;;;;;;2.68;47.86;100511.12;103606;1254;137163;-67
2023/03/18 03:27:56;;;;;;;9.20;4.30;;;;;;;2.68;47.76;100500.47;103640;1250;106869;-67
2023/03/18 03:30:26;;;;;;;13.30;4.60;;;;;;;2.68;47.75;100515.41;103445;1248;137427;-66
2023/03/18 03:33:14;;;;;;;7.50;3.80;;;;;;;2.68;47.72;100505.45;103662;1253;107319;-67
2023/03/18 03:35:47;;;;;;;9.60;4.10;;;;;;;2.67;47.62;100500.64;103567;1254;137547;-66
2023/03/18 03:38:34;;;;;;;8.50;4.20;;;;;;;2.67;47.67;100506.30;103650;1248;110898;-67
2023/03/18 03:41:05;;;;;;;11.40;4.00;;;;;;;2.67;47.63;100498.24;103669;1248;107967;-67
2023/03/18 03:43:42;;;;;;;11.20;4.60;;;;;;;2.67;47.48;100500.13;103646;1248;98074;-67
2023/03/18 03:46:14;;;;;;;9.60;4.20;;;;;;;2.66;47.62;100499.95;103683;1252;107298;-67
2023/03/18 03:48:42;;;;;;;10.10;4.40;;;;;;;2.66;47.60;100505.79;103564;1251;137569;-66
2023/03/18 03:51:11;;;;;;;12.40;4.70;;;;;;;2.66;47.52;100510.77;103818;1253;112024;-67
2023/03/18 03:53:59;;;;;;;7.30;3.90;;;;;;;2.66;47.50;100500.81;103112;1257;138487;-67
2023/03/18 03:56:42;;;;;;;9.20;4.50;;;;;;;2.64;47.53;100504.93;104269;1257;98151;-67
2023/03/18 03:59:10;;;;;;;7.40;3.80;;;;;;;2.64;47.45;100512.66;103173;1257;137373;-68
2023/03/18 04:02:03;;;;;;;15.30;4.30;;;;;;;2.62;47.32;100514.54;103148;1257;97833;-67
2023/03/18 04:04:44;;;;;;;8.20;4.10;;;;;;;2.61;47.33;100516.42;103221;1254;113016;-67
2023/03/18 04:07:20;;;;;;;11.50;4.40;;;;;;;2.60;47.28;100520.02;102990;1255;137929;-67
2023/03/18 04:09:48;;;;;;;10.00;4.40;;;;;;;2.60;47.49;100503.89;103090;1258;97705;-69
2023/03/18 04:12:21;;;;;;;14.10;4.80;;;;;;;2.57;47.37;100518.98;103081;1257;137737;-68
2023/03/18 04:14:53;;;;;;;9.70;4.40;;;;;;;2.56;47.19;100513.66;103192;1255;97898;-68
2023/03/18 04:17:21;;;;;;;8.00;4.20;;;;;;;2.54;47.28;100516.75;103065;1255;138449;-68
2023/03/18 04:19:49;;;;;;;9.20;4.20;;;;;;;2.52;47.26;100509.35;103205;1257;107330;-66
2023/03/18 04:22:17;;;;;;;9.90;4.20;;;;;;;2.50;47.32;100511.72;103237;1254;98521;-67
2023/03/18 04:24:44;;;;;;;8.10;4.20;;;;;;;2.49;47.32;100506.40;103086;1257;137419;-67
2023/03/18 04:27:12;;;;;;;10.20;4.60;;;;;;;2.47;47.25;100506.91;103679;1252;97889;-67
2023/03/18 04:29:40;;;;;;;12.70;4.70;;;;;;;2.45;47.36;100513.08;103569;1251;137789;-67
2023/03/18 04:32:08;;;;;;;8.80;4.10;;;;;;;2.45;47.31;100517.72;103612;1254;106628;-67
2023/03/18 04:34:54;;;;;;;9.40;4.10;;;;;;;2.44;47.21;100528.34;103681;1252;98011;-67
2023/03/18 04:37:24;;;;;;;10.30;4.90;;;;;;;2.43;47.30;100534.53;103556;1248;137145;-68
2023/03/18 04:39:53;;;;;;;13.20;4.20;;;;;;;2.43;47.33;100517.71;103673;1248;97738;-67
2023/03/18 04:42:23;;;;;;;16.30;4.20;;;;;;;2.42;47.39;100516.33;103519;1248;138431;-68
2023/03/18 04:45:00;;;;;;;13.50;4.30;;;;;;;2.40;47.31;100525.94;103671;1253;105858;-68
2023/03/18 04:47:28;;;;;;;10.60;4.10;;;;;;;2.39;47.28;100526.11;103383;1253;137907;-68
2023/03/18 04:50:09;;;;;;;10.70;3.90;;;;;;;2.38;47.37;100527.48;103657;1250;108624;-68
2023/03/18 04:52:57;;;;;;;6.90;4.30;;;;;;;2.39;47.47;100521.30;103615;1253;97806;-68
2023/03/18 04:55:26;;;;;;;13.80;4.00;;;;;;;2.40;47.40;100527.14;103421;1248;137281;-67
2023/03/18 04:57:57;;;;;;;8.30;4.10;;;;;;;2.42;47.34;100531.61;103528;1253;107614;-68
2023/03/18 05:00:35;;;;;;;10.20;4.20;;;;;;;2.45;47.26;100533.85;103571;1248;137438;-67
2023/03/18 05:03:14;;;;;;;6.60;3.40;;;;;;;2.49;47.24;100519.77;103667;1248;108797;-68
2023/03/18 05:05:52;;;;;;;11.80;4.50;;;;;;;2.54;47.08;100518.45;103566;1248;137379;-68
2023/03/18 05:08:25;;;;;;;9.00;4.10;;;;;;;2.60;47.08;100512.13;103702;1248;111584;-67
2023/03/18 05:10:52;;;;;;;9.20;3.80;;;;;;;2.67;46.85;100525.89;103684;1248;108296;-68
2023/03/18 05:13:20;;;;;;;10.30;4.00;;;;;;;2.75;46.85;100510.98;103380;1254;137307;-67
2023/03/18 05:15:51;;;;;;;13.40;4.40;;;;;;;2.95;46.60;100525.66;103638;1248;105385;-67
2023/03/18 05:18:19;;;;;;;12.20;4.40;;;;;;;3.32;46.09;100517.34;103337;1248;137541;-67
2023/03/18 05:20:47;;;;;;;11.10;4.20;;;;;;;3.68;45.29;100515.81;103552;1251;110834;-68
2023/03/18 05:23:15;;;;;;;8.20;3.90;;;;;;;3.89;44.94;100516.14;103364;1250;137751;-68
2023/03/18 05:25:51;;;;;;;11.50;4.10;;;;;;;4.05;44.45;100510.29;103616;1250;97768;-68
2023/03/18 05:28:21;;;;;;;7.70;4.10;;;;;;;4.30;44.08;100513.50;103570;1248;108492;-68
2023/03/18 05:31:07;;;;;;;12.40;4.20;;;;;;;4.70;43.33;100507.52;103561;1248;137664;-68
2023/03/18 05:33:37;;;;;;;12.70;4.10;;;;;;;5.40;42.32;100501.79;103733;1250;111374;-68
2023/03/18 05:36:08;;;;;;;6.80;3.60;;;;;;;6.16;40.99;100504.80;103542;1247;138347;-68
2023/03/18 05:38:40;;;;;;;6.50;4.00;;;;;;;6.58;39.64;100515.05;103458;1248;98286;-68
2023/03/18 05:41:08;;;;;;;5.80;3.60;;;;;;;7.03;38.75;100513.63;103396;1251;137414;-68
2023/03/18 05:43:37;;;;;;;10.30;3.90;;;;;;;7.44;38.36;100511.83;103486;1253;97669;-68
2023/03/18 05:46:05;;;;;;;7.10;3.70;;;;;;;8.02;37.55;100500.83;103731;1250;111252;-68
2023/03/18 05:48:58;;;;;;;7.50;3.50;;;;;;;8.78;35.53;100504.45;103554;1248;137430;-68
2023/03/18 05:51:30;;;;;;;6.30;3.60;;;;;;;8.96;35.59;100496.95;104231;1247;97773;-68
2023/03/18 05:54:01;;;;;;;8.60;3.90;;;;;;;9.26;35.03;100495.23;103287;1248;137334;-68
2023/03/18 05:56:51;;;;;;;6.70;3.50;;;;;;;9.96;33.93;100484.33;103736;1248;97751;-69
2023/03/18 05:59:19;;;;;;;6.20;3.40;;;;;;;10.83;33.71;100483.17;103454;1248;138154;-68
2023/03/18 06:01:52;;;;;;;8.20;4.00;;;;;;;11.93;32.09;100481.10;103601;1250;107178;-69
2023/03/18 06:04:20;;;;;;;7.10;3.70;;;;;;;12.68;31.09;100480.52;103423;1250;98462;-68
2023/03/18 06:06:48;;;;;;;8.20;3.70;;;;;;;13.35;30.17;100476.56;103425;1253;137537;-70
2023/03/18 06:09:16;;;;;;;7.90;3.70;;;;;;;13.91;29.37;100480.55;104020;1256;97784;-68
2023/03/18 06:11:44;;;;;;;7.60;3.80;;;;;;;14.41;28.77;100480.33;103354;1250;137800;-69
2023/03/18 06:14:11;;;;;;;6.60;3.60;;;;;;;15.11;28.76;100462.41;103560;1250;106253;-68
2023/03/18 06:16:39;;;;;;;6.40;3.90;;;;;;;15.76;27.01;100459.48;103579;1249;98112;-67
2023/03/18 06:19:06;;;;;;;7.50;3.40;;;;;;;15.89;25.28;100483.02;103407;1251;138137;-68
2023/03/18 06:21:35;;;;;;;4.90;3.20;;;;;;;15.88;25.62;100463.76;103421;1254;98688;-68
2023/03/18 06:24:03;;;;;;;6.80;4.00;;;;;;;15.92;25.20;100460.77;103423;1253;137572;-68
2023/03/18 06:26:32;;;;;;;10.60;3.60;;;;;;;15.88;25.34;100462.91;103441;1251;107832;-69
2023/03/18 06:29:01;;;;;;;6.40;3.40;;;;;;;15.72;24.99;100466.83;103257;1250;97797;-68
2023/03/18 06:31:28;;;;;;;6.90;3.70;;;;;;;15.56;25.14;100476.38;103379;1250;137492;-68
2023/03/18 06:33:55;;;;;;;7.70;3.80;;;;;;;15.40;25.49;100474.70;103543;1250;97765;-66
2023/03/18 06:36:23;;;;;;;5.70;3.20;;;;;;;15.18;25.05;100481.20;103517;1250;137685;-67
2023/03/18 06:38:51;;;;;;;12.30;3.80;;;;;;;15.03;25.13;100481.00;103561;1251;108916;-68
2023/03/18 06:41:20;;;;;;;7.80;3.70;;;;;;;15.34;25.75;100467.27;103452;1252;138239;-67
2023/03/18 06:44:07;;;;;;;8.10;4.10;;;;;;;15.97;25.35;100457.34;103600;1253;107431;-67
2023/03/18 06:46:36;;;;;;;9.20;4.20;;;;;;;16.41;24.86;100469.64;103626;1253;97663;-67
2023/03/18 06:49:03;;;;;;;11.60;4.20;;;;;;;16.28;24.06;100469.23;103439;1250;137596;-68
2023/03/18 06:51:33;;;;;;;6.70;3.70;;;;;;;16.06;24.36;100468.08;103575;1250;107380;-65
2023/03/18 06:54:01;;;;;;;7.20;3.50;;;;;;;15.93;24.03;100477.02;103645;1250;137770;-63
2023/03/18 06:56:32;;;;;;;8.00;3.50;;;;;;;15.85;24.38;100479.89;103754;1250;107622;-67
2023/03/18 06:59:09;;;;;;;6.90;3.60;;;;;;;15.60;23.70;100496.52;103608;1251;97782;-64
2023/03/18 07:01:38;;;;;;;9.10;3.70;;;;;;;15.25;24.17;100485.08;103528;1256;111949;-62
2023/03/18 07:04:07;;;;;;;7.60;3.70;;;;;;;15.12;24.28;100483.41;103739;1247;107904;-64
2023/03/18 07:06:36;;;;;;;8.20;4.00;;;;;;;15.06;24.45;100483.30;103910;1248;137750;-66
2023/03/18 07:09:04;;;;;;;6.20;3.50;;;;;;;15.37;25.00;100474.11;104257;1250;108150;-64
2023/03/18 07:11:31;;;;;;;7.10;4.00;;;;;;;15.74;24.67;100476.89;103610;1249;138052;-64
2023/03/18 07:14:03;;;;;;;6.80;3.30;;;;;;;16.03;24.29;100468.63;103753;1247;111342;-65
2023/03/18 07:16:31;;;;;;;8.20;4.00;;;;;;;16.23;24.27;100474.05;103492;1247;108232;-68
2023/03/18 07:19:00;;;;;;;7.20;3.60;;;;;;;16.42;24.52;100482.38;103397;1247;138229;-68
2023/03/18 07:21:29;;;;;;;9.00;3.70;;;;;;;16.34;24.23;100480.69;103554;1248;107674;-68
2023/03/18 07:23:57;;;;;;;8.40;4.10;;;;;;;16.54;24.63;100479.08;103399;1248;138080;-67
2023/03/18 07:26:24;;;;;;;8.50;3.90;;;;;;;16.72;23.88;100482.05;103517;1251;111855;-67
2023/03/18 07:28:51;;;;;;;8.50;3.70;;;;;;;16.67;23.37;100488.80;103640;1248;107629;-70
2023/03/18 07:31:19;;;;;;;9.60;3.80;;;;;;;16.37;23.13;100502.66;103553;1250;137797;-68
2023/03/18 07:33:46;;;;;;;6.90;3.40;;;;;;;16.13;23.42;100489.11;103456;1251;107426;-67
2023/03/18 07:36:15;;;;;;;8.00;3.80;;;;;;;15.99;23.61;100501.25;103590;1248;138435;-68
2023/03/18 07:38:42;;;;;;;8.30;3.80;;;;;;;15.86;24.22;100485.43;103695;1248;110767;-65
2023/03/18 07:41:11;;;;;;;6.50;3.60;;;;;;;16.03;24.60;100494.06;103541;1251;108483;-67
2023/03/18 07:43:38;;;;;;;8.20;3.90;;;;;;;16.04;24.19;100507.32;103722;1252;97682;-69
2023/03/18 07:46:06;;;;;;;10.40;4.20;;;;;;;16.04;24.06;100500.52;103703;1248;108606;-69
2023/03/18 07:48:34;;;;;;;8.20;3.80;;;;;;;16.03;23.94;100497.89;103734;1247;138061;-68
2023/03/18 07:51:01;;;;;;;7.30;4.00;;;;;;;15.97;23.90;100496.63;104103;1248;110970;-68
2023/03/18 07:53:29;;;;;;;6.10;3.50;;;;;;;15.92;23.68;100506.34;103622;1247;140748;-69
2023/03/18 07:55:56;;;;;;;9.00;4.20;;;;;;;15.93;23.83;100495.61;104550;1249;97781;-68
2023/03/18 07:58:24;;;;;;;7.10;4.30;;;;;;;16.03;23.99;100488.27;103732;1248;109182;-69
2023/03/18 08:00:52;;;;;;;5.90;4.00;;;;;;;16.26;23.72;100483.91;103594;1248;137782;-69
2023/03/18 08:03:19;;;;;;;8.40;4.00;;;;;;;16.43;23.52;100491.47;103740;1248;111417;-69
2023/03/18 08:05:46;;;;;;;8.60;4.10;;;;;;;16.51;23.15;100485.05;103546;1253;138065;-71
2023/03/18 08:08:14;;;;;;;8.70;3.90;;;;;;;16.54;23.14;100479.63;103792;1248;97809;-69
2023/03/18 08:10:41;;;;;;;8.10;3.80;;;;;;;16.68;23.55;100475.38;103766;1252;108790;-68
2023/03/18 08:13:09;;;;;;;8.30;3.90;;;;;;;16.95;23.41;100479.87;103395;1250;137892;-68
2023/03/18 08:15:36;;;;;;;8.30;3.90;;;;;;;17.10;23.06;100481.87;104334;1248;112063;-68
2023/03/18 08:18:03;;;;;;;8.60;3.80;;;;;;;17.06;22.76;100491.60;103561;1253;138378;-69
2023/03/18 08:20:35;;;;;;;7.70;3.80;;;;;;;16.74;22.21;100492.11;103824;1248;98253;-70
2023/03/18 08:23:02;;;;;;;5.50;3.10;;;;;;;16.60;22.71;100483.87;103878;1253;107657;-73
2023/03/18 08:25:30;;;;;;;7.30;3.60;;;;;;;16.49;22.70;100477.43;103538;1250;139159;-74
2023/03/18 08:27:58;;;;;;;7.10;3.50;;;;;;;16.57;22.84;100487.89;103697;1252;110743;-73
2023/03/18 08:30:27;;;;;;;7.70;3.80;;;;;;;16.50;22.59;100487.03;103532;1248;137667;-75
2023/03/18 08:32:56;;;;;;;10.60;3.90;;;;;;;16.37;22.85;100482.46;103602;1253;97724;-70
2023/03/18 08:35:23;;;;;;;9.50;3.90;;;;;;;16.18;22.86;100482.38;103338;1251;137914;-73
2023/03/18 08:37:51;;;;;;;7.90;3.70;;;;;;;16.10;23.37;100466.13;103642;1253;97844;-71
2023/03/18 08:40:19;;;;;;;6.60;3.70;;;;;;;16.17;23.17;100486.65;103655;1253;111031;-67
2023/03/18 08:42:47;;;;;;;8.00;4.00;;;;;;;16.03;22.89;100481.08;103535;1250;137800;-74
2023/03/18 08:45:15;;;;;;;7.80;3.80;;;;;;;15.84;23.13;100473.27;103709;1248;98035;-68
2023/03/18 08:47:43;;;;;;;7.70;3.90;;;;;;;15.70;23.21;100464.32;104685;1247;137781;-67
2023/03/18 08:50:12;;;;;;;8.50;4.00;;;;;;;15.80;23.85;100466.63;103671;1247;97884;-67
2023/03/18 08:52:40;;;;;;;9.50;4.00;;;;;;;16.08;23.79;100468.35;103809;1250;110979;-76
2023/03/18 08:55:08;;;;;;;9.00;3.80;;;;;;;15.98;23.26;100477.65;103396;1253;138102;-72
2023/03/18 08:57:37;;;;;;;12.10;4.00;;;;;;;15.65;23.41;100459.97;105038;1247;95696;-70
2023/03/18 09:00:06;;;;;;;9.40;3.90;;;;;;;15.51;24.20;100446.83;103659;1247;137824;-69
2023/03/18 09:02:33;;;;;;;5.30;3.60;;;;;;;15.63;24.91;100446.22;103485;1247;97870;-68
2023/03/18 09:05:01;;;;;;;6.50;3.90;;;;;;;15.77;24.00;100457.11;103683;1250;111711;-68
2023/03/18 09:07:29;;;;;;;5.50;3.30;;;;;;;15.70;24.24;100446.79;103382;1247;137592;-70
2023/03/18 09:09:56;;;;;;;6.20;3.60;;;;;;;15.66;24.23;100444.33;103722;1247;97873;-68
2023/03/18 09:12:24;;;;;;;9.20;4.00;;;;;;;15.60;23.93;100447.99;103638;1248;137668;-66
2023/03/18 09:14:51;;;;;;;5.50;3.60;;;;;;;15.53;23.80;100450.21;103728;1253;97785;-67
2023/03/18 09:17:18;;;;;;;6.60;3.80;;;;;;;15.43;24.07;100437.73;103598;1252;138326;-68
2023/03/18 09:19:46;;;;;;;7.60;3.90;;;;;;;15.39;24.26;100441.08;103618;1247;107145;-66
2023/03/18 09:22:14;;;;;;;6.40;3.60;;;;;;;15.35;24.58;100440.06;103709;1250;97825;-73
2023/03/18 09:24:42;;;;;;;7.10;3.70;;;;;;;15.36;24.79;100435.83;103471;1250;137716;-70
2023/03/18 09:27:10;;;;;;;7.70;3.80;;;;;;;15.37;24.45;100433.17;103474;1252;97761;-71
2023/03/18 09:29:38;;;;;;;9.10;3.70;;;;;;;15.35;24.12;100444.98;103428;1247;139283;-71
2023/03/18 09:32:05;;;;;;;8.60;3.60;;;;;;;15.18;24.17;100439.15;103606;1250;107322;-71
2023/03/18 09:34:32;;;;;;;7.40;4.00;;;;;;;15.14;24.77;100446.20;103695;1253;97764;-68
2023/03/18 09:37:00;;;;;;;7.30;3.50;;;;;;;15.18;24.44;100438.09;103494;1248;138187;-71
2023/03/18 09:39:27;;;;;;;7.00;4.00;;;;;;;15.20;24.61;100433.64;103685;1248;97771;-72
2023/03/18 09:42:09;;;;;;;5.70;3.30;;;;;;;15.19;24.73;100423.88;103577;1253;137583;-75
2023/03/18 09:44:38;;;;;;;7.30;3.40;;;;;;;15.27;24.85;100427.68;103943;1247;107091;-71
2023/03/18 09:47:22;;;;;;;7.60;3.50;;;;;;;15.31;24.96;100418.73;103672;1253;97790;-72
2023/03/18 09:50:10;;;;;;;7.10;3.70;;;;;;;15.38;24.73;100419.59;104458;1248;108040;-74
2023/03/18 09:52:43;;;;;;;10.50;3.80;;;;;;;15.23;24.75;100416.67;103457;1248;97890;-68
2023/03/18 09:55:23;;;;;;;9.50;3.70;;;;;;;15.16;24.67;100424.20;103602;1248;138060;-71
2023/03/18 09:57:54;;;;;;;7.70;3.70;;;;;;;14.87;24.56;100430.46;104699;1249;107650;-68
2023/03/18 10:00:28;;;;;;;8.40;3.70;;;;;;;14.63;25.11;100420.40;103506;1253;137744;-71
2023/03/18 10:03:00;;;;;;;9.10;3.90;;;;;;;14.44;25.02;100417.37;103662;1248;107144;-70
2023/03/18 10:05:34;;;;;;;8.30;3.40;;;;;;;14.34;25.43;100427.30;103609;1249;137925;-70
2023/03/18 10:08:06;;;;;;;8.90;3.90;;;;;;;14.25;25.74;100418.59;103635;1248;111284;-70
2023/03/18 10:10:39;;;;;;;7.70;3.50;;;;;;;14.25;25.74;100418.80;103652;1253;105829;-70
2023/03/18 10:13:16;;;;;;;4.50;3.00;;;;;;;14.31;25.72;100419.91;103577;1251;138289;-70
2023/03/18 10:15:47;;;;;;;6.40;3.10;;;;;;;14.31;25.08;100419.16;103720;1249;107584;-69
2023/03/18 10:18:24;;;;;;;5.60;3.30;;;;;;;14.28;24.41;100425.45;103519;1250;137747;-72
2023/03/18 10:21:03;;;;;;;7.50;3.50;;;;;;;14.18;24.24;100416.61;103589;1253;110767;-70
2023/03/18 10:23:42;;;;;;;5.10;3.30;;;;;;;14.02;24.46;100404.25;103513;1247;137922;-70
2023/03/18 10:26:16;;;;;;;8.30;3.30;;;;;;;14.01;24.75;100412.33;103609;1251;97876;-73
2023/03/18 10:29:00;;;;;;;5.40;3.00;;;;;;;13.93;24.18;100408.30;103544;1248;106897;-74
2023/03/18 10:31:42;;;;;;;8.20;3.00;;;;;;;13.66;24.52;100407.53;104271;1247;137666;-74
2023/03/18 10:34:14;;;;;;;6.80;3.70;;;;;;;13.62;24.96;100412.92;103709;1252;113020;-80
2023/03/18 10:36:50;;;;;;;9.50;3.70;;;;;;;13.63;25.63;100401.54;103538;1250;137762;-76
2023/03/18 10:39:21;;;;;;;5.70;3.30;;;;;;;13.74;25.93;100395.64;103795;1248;97695;-75
2023/03/18 10:41:53;;;;;;;9.70;4.00;;;;;;;14.04;26.51;100388.23;103556;1252;137985;-72
2023/03/18 10:44:26;;;;;;;5.90;3.20;;;;;;;14.34;25.87;100388.95;103467;1251;97813;-75
2023/03/18 10:47:02;;;;;;;6.70;3.80;;;;;;;14.49;25.97;100388.14;103756;1252;112280;-75
2023/03/18 10:49:35;;;;;;;5.90;3.40;;;;;;;14.64;25.42;100390.24;103676;1252;137699;-75
2023/03/18 10:52:10;;;;;;;8.30;3.30;;;;;;;14.61;25.15;100391.98;103734;1247;97804;-74
2023/03/18 10:54:41;;;;;;;7.40;3.30;;;;;;;14.52;25.79;100386.23;103646;1250;137944;-75
2023/03/18 10:57:13;;;;;;;6.70;3.40;;;;;;;14.64;25.74;100385.18;104152;1252;97753;-75
2023/03/18 10:59:43;;;;;;;6.80;3.40;;;;;;;14.71;25.32;100381.31;103606;1247;137742;-77
2023/03/18 11:02:18;;;;;;;6.10;3.40;;;;;;;14.70;25.68;100373.00;103677;1247;106992;-75
2023/03/18 11:04:55;;;;;;;7.40;4.20;;;;;;;14.61;25.30;100369.06;103776;1247;98647;-79
2023/03/18 11:07:26;;;;;;;6.70;3.90;;;;;;;14.52;25.83;100365.77;103591;1247;137821;-73
2023/03/18 11:09:54;;;;;;;7.00;3.90;;;;;;;14.52;26.10;100358.41;103600;1247;97639;-75
2023/03/18 11:12:25;;;;;;;7.40;3.60;;;;;;;14.54;25.37;100352.60;103591;1248;137876;-73
2023/03/18 11:14:53;;;;;;;5.80;3.40;;;;;;;14.32;25.62;100359.31;103604;1250;107585;-67
2023/03/18 11:17:26;;;;;;;8.90;3.80;;;;;;;14.23;25.29;100371.79;103685;1247;138130;-71
2023/03/18 11:20:06;;;;;;;6.10;3.30;;;;;;;14.06;25.82;100363.31;103701;1247;107233;-71
2023/03/18 11:22:35;;;;;;;8.10;3.90;;;;;;;13.99;26.12;100358.37;104378;1247;98168;-70
2023/03/18 11:25:13;;;;;;;11.30;3.40;;;;;;;14.09;26.47;100351.64;103479;1247;137562;-70
2023/03/18 11:27:42;;;;;;;10.80;3.80;;;;;;;14.27;26.17;100356.06;103593;1253;108924;-68
2023/03/18 11:30:23;;;;;;;5.60;3.50;;;;;;;14.21;25.75;100353.03;103512;1250;138020;-67
2023/03/18 11:33:06;;;;;;;11.80;4.30;;;;;;;14.16;25.81;100350.96;103669;1247;106992;-66
2023/03/18 11:35:40;;;;;;;6.30;3.70;;;;;;;14.09;26.01;100349.52;104339;1247;138720;-67
2023/03/18 11:38:14;;;;;;;6.10;3.80;;;;;;;14.02;25.90;100353.02;103744;1252;110679;-71